createdAt,value
2022-07-26T00:01:00.766Z,51.01
2022-07-26T00:03:27.082Z,51.08
2022-07-26T00:05:53.412Z,51.42
2022-07-26T00:08:19.788Z,51.71
2022-07-26T00:10:49.055Z,51.63
2022-07-26T00:13:19.095Z,51.88
2022-07-26T00:15:48.392Z,52.23
2022-07-26T00:18:16.473Z,52.06
2022-07-26T00:20:44.342Z,52.20
2022-07-26T00:23:10.974Z,52.32
2022-07-26T00:25:37.304Z,52.52
2022-07-26T00:28:04.321Z,52.69
2022-07-26T00:30:30.994Z,52.77
2022-07-26T00:32:57.291Z,53.13
2022-07-26T00:35:23.990Z,53.10
2022-07-26T00:37:50.583Z,53.29
2022-07-26T00:40:17.435Z,53.28
2022-07-26T00:42:43.957Z,53.46
2022-07-26T00:45:11.927Z,53.72
2022-07-26T00:47:38.214Z,53.96
2022-07-26T00:50:07.097Z,53.95
2022-07-26T00:52:33.586Z,54.09
2022-07-26T00:54:59.924Z,54.20
2022-07-26T00:57:26.555Z,54.08
2022-07-26T00:59:52.848Z,54.32
2022-07-26T01:02:20.388Z,54.43
2022-07-26T01:04:47.289Z,54.89
2022-07-26T01:07:14.720Z,54.74
2022-07-26T01:09:42.198Z,55.13
2022-07-26T01:12:09.054Z,55.26
2022-07-26T01:14:35.422Z,55.32
2022-07-26T01:17:01.885Z,55.62
2022-07-26T01:19:28.172Z,55.44
2022-07-26T01:21:54.429Z,55.76
2022-07-26T01:24:20.735Z,55.69
2022-07-26T01:26:46.958Z,56.02
2022-07-26T01:29:13.221Z,56.11
2022-07-26T01:31:39.690Z,56.28
2022-07-26T01:34:06.531Z,56.30
2022-07-26T01:36:33.101Z,56.54
2022-07-26T01:38:59.493Z,56.40
2022-07-26T01:41:38.125Z,56.46
2022-07-26T01:44:07.182Z,56.57
2022-07-26T01:46:35.356Z,56.67
2022-07-26T01:49:02.381Z,56.70
2022-07-26T01:51:28.813Z,56.58
2022-07-26T01:53:55.426Z,56.62
2022-07-26T01:56:21.685Z,56.87
2022-07-26T01:58:48.278Z,57.03
2022-07-26T02:01:14.701Z,57.07
2022-07-26T02:03:41.099Z,57.18
2022-07-26T02:06:08.508Z,57.28
2022-07-26T02:08:34.860Z,57.20
2022-07-26T02:11:03.766Z,57.23
2022-07-26T02:13:34.194Z,57.29
2022-07-26T02:16:03.146Z,57.43
2022-07-26T02:18:30.405Z,57.54
2022-07-26T02:20:58.966Z,57.60
2022-07-26T02:23:25.739Z,57.68
2022-07-26T02:25:53.618Z,57.69
2022-07-26T02:28:20.845Z,57.93
2022-07-26T02:30:48.013Z,57.64
2022-07-26T02:33:15.041Z,57.91
2022-07-26T02:35:42.282Z,57.85
2022-07-26T02:38:11.388Z,57.94
2022-07-26T02:40:38.629Z,57.91
2022-07-26T02:43:06.389Z,57.88
2022-07-26T02:45:33.064Z,57.94
2022-07-26T02:47:59.794Z,58.21
2022-07-26T02:50:27.613Z,58.18
2022-07-26T02:52:54.990Z,58.57
2022-07-26T02:55:24.976Z,58.41
2022-07-26T02:57:51.824Z,58.54
2022-07-26T03:00:23.182Z,58.33
2022-07-26T03:02:50.601Z,58.31
2022-07-26T03:05:17.831Z,58.49
2022-07-26T03:07:44.175Z,58.61
2022-07-26T03:10:10.958Z,58.69
2022-07-26T03:12:37.214Z,58.74
2022-07-26T03:15:03.815Z,58.68
2022-07-26T03:17:30.063Z,58.87
2022-07-26T03:19:59.263Z,58.85
2022-07-26T03:22:25.620Z,58.78
2022-07-26T03:24:51.900Z,58.83
2022-07-26T03:27:18.155Z,58.85
2022-07-26T03:29:44.380Z,58.82
2022-07-26T03:32:10.633Z,58.91
2022-07-26T03:34:37.010Z,59.00
2022-07-26T03:37:03.542Z,58.85
2022-07-26T03:39:30.066Z,58.97
2022-07-26T03:41:56.448Z,58.96
2022-07-26T03:44:22.701Z,58.79
2022-07-26T03:46:48.921Z,58.90
2022-07-26T03:49:17.204Z,58.97
2022-07-26T03:51:43.989Z,58.97
2022-07-26T03:54:11.309Z,58.91
2022-07-26T03:56:39.368Z,59.04
2022-07-26T03:59:10.283Z,59.11
2022-07-26T04:01:41.572Z,59.21
2022-07-26T04:04:09.565Z,59.21
2022-07-26T04:06:37.067Z,59.13
2022-07-26T04:09:06.036Z,59.24
2022-07-26T04:11:33.829Z,59.33
2022-07-26T04:14:00.231Z,59.19
2022-07-26T04:16:27.067Z,59.22
2022-07-26T04:18:53.759Z,59.19
2022-07-26T04:21:20.167Z,59.34
2022-07-26T04:23:51.100Z,59.37
2022-07-26T04:26:20.728Z,59.24
2022-07-26T04:28:47.438Z,59.29
2022-07-26T04:31:13.804Z,59.34
2022-07-26T04:33:40.162Z,59.26
2022-07-26T04:36:06.724Z,59.35
2022-07-26T04:38:32.965Z,59.59
2022-07-26T04:40:59.230Z,59.77
2022-07-26T04:43:25.880Z,59.71
2022-07-26T04:45:52.364Z,59.67
2022-07-26T04:48:19.105Z,59.67
2022-07-26T04:50:45.480Z,59.70
2022-07-26T04:53:11.880Z,59.62
2022-07-26T04:55:39.676Z,59.70
2022-07-26T04:58:05.969Z,59.63
2022-07-26T05:00:32.228Z,59.50
2022-07-26T05:03:00.073Z,59.72
2022-07-26T05:05:30.406Z,59.80
2022-07-26T05:08:01.964Z,59.76
2022-07-26T05:10:37.096Z,59.78
2022-07-26T05:13:05.308Z,59.88
2022-07-26T05:15:35.330Z,59.76
2022-07-26T05:18:07.025Z,59.71
2022-07-26T05:20:35.652Z,59.50
2022-07-26T05:23:02.167Z,59.50
2022-07-26T05:25:28.653Z,59.31
2022-07-26T05:27:55.001Z,59.50
2022-07-26T05:30:21.868Z,59.19
2022-07-26T05:32:48.204Z,59.14
2022-07-26T05:35:14.989Z,59.27
2022-07-26T05:37:41.282Z,59.16
2022-07-26T05:40:08.168Z,58.99
2022-07-26T05:42:34.468Z,58.97
2022-07-26T05:45:00.936Z,58.81
2022-07-26T05:47:27.193Z,58.98
2022-07-26T05:49:54.465Z,58.89
2022-07-26T05:52:22.143Z,58.79
2022-07-26T05:54:48.510Z,58.77
2022-07-26T05:57:14.773Z,58.71
2022-07-26T05:59:41.023Z,58.80
2022-07-26T06:02:07.656Z,58.82
2022-07-26T06:04:34.532Z,58.88
2022-07-26T06:07:01.134Z,58.91
2022-07-26T06:09:27.893Z,58.77
2022-07-26T06:11:54.126Z,58.71
2022-07-26T06:14:20.423Z,58.71
2022-07-26T06:16:47.747Z,58.56
2022-07-26T06:19:14.202Z,58.43
2022-07-26T06:21:41.574Z,58.48
2022-07-26T06:24:08.293Z,58.51
2022-07-26T06:26:34.849Z,58.91
2022-07-26T06:29:01.150Z,58.93
2022-07-26T06:31:27.527Z,59.69
2022-07-26T06:33:53.936Z,59.98
2022-07-26T06:36:20.199Z,60.28
2022-07-26T06:38:46.542Z,60.58
2022-07-26T06:41:15.376Z,60.56
2022-07-26T06:43:41.739Z,60.63
2022-07-26T06:46:08.090Z,60.38
2022-07-26T06:48:35.132Z,59.97
2022-07-26T06:51:01.707Z,59.76
2022-07-26T06:53:27.979Z,59.93
2022-07-26T06:55:54.314Z,59.68
2022-07-26T06:58:20.590Z,59.64
2022-07-26T07:00:46.922Z,59.88
2022-07-26T07:03:13.389Z,59.59
2022-07-26T07:05:39.764Z,59.54
2022-07-26T07:08:06.202Z,59.53
2022-07-26T07:10:34.059Z,59.48
2022-07-26T07:13:00.934Z,59.32
2022-07-26T07:15:27.144Z,59.18
2022-07-26T07:17:53.410Z,59.18
2022-07-26T07:20:19.655Z,59.06
2022-07-26T07:22:46.002Z,59.05
2022-07-26T07:25:14.682Z,59.14
2022-07-26T07:27:41.226Z,58.92
2022-07-26T07:30:10.118Z,59.14
2022-07-26T07:32:36.614Z,59.13
2022-07-26T07:35:04.421Z,58.79
2022-07-26T07:37:52.664Z,58.73
2022-07-26T07:40:21.405Z,58.51
2022-07-26T07:42:47.813Z,58.70
2022-07-26T07:45:14.683Z,58.79
2022-07-26T07:47:41.948Z,58.63
2022-07-26T07:50:08.452Z,58.73
2022-07-26T07:52:34.874Z,58.80
2022-07-26T07:55:21.807Z,58.92
2022-07-26T07:57:47.392Z,58.91
2022-07-26T08:00:16.059Z,58.90
2022-07-26T08:02:43.287Z,59.04
2022-07-26T08:05:13.977Z,59.14
2022-07-26T08:07:41.017Z,59.33
2022-07-26T08:10:08.145Z,59.21
2022-07-26T08:12:34.657Z,59.29
2022-07-26T08:15:07.369Z,59.59
2022-07-26T08:17:35.242Z,59.52
2022-07-26T08:20:07.972Z,59.51
2022-07-26T08:22:37.138Z,59.76
2022-07-26T08:25:04.537Z,59.72
2022-07-26T08:27:30.795Z,59.80
2022-07-26T08:29:57.040Z,60.07
2022-07-26T08:32:23.443Z,60.42
2022-07-26T08:34:49.680Z,60.72
2022-07-26T08:37:17.841Z,62.02
2022-07-26T08:39:46.643Z,62.77
2022-07-26T08:42:15.093Z,62.74
2022-07-26T08:44:46.266Z,63.44
2022-07-26T08:47:14.209Z,63.44
2022-07-26T08:49:41.861Z,64.13
2022-07-26T08:52:09.593Z,63.94
2022-07-26T08:54:36.371Z,64.13
2022-07-26T08:57:02.820Z,64.25
2022-07-26T08:59:29.987Z,64.80
2022-07-26T09:02:05.657Z,64.34
2022-07-26T09:04:43.998Z,64.72
2022-07-26T09:07:16.920Z,64.84
2022-07-26T09:10:01.090Z,64.73
2022-07-26T09:12:29.137Z,64.98
2022-07-26T09:14:56.498Z,65.23
2022-07-26T09:17:24.773Z,65.65
2022-07-26T09:20:09.018Z,64.91
2022-07-26T09:22:36.996Z,65.38
2022-07-26T09:25:19.014Z,65.40
2022-07-26T09:27:45.736Z,65.62
2022-07-26T09:30:12.461Z,65.52
2022-07-26T09:32:38.902Z,65.53
2022-07-26T09:35:44.217Z,66.17
2022-07-26T09:37:58.597Z,66.27
2022-07-26T09:40:34.035Z,66.57
2022-07-26T09:43:04.621Z,66.79
2022-07-26T09:45:33.326Z,67.23
2022-07-26T09:48:01.016Z,67.48
2022-07-26T09:50:30.105Z,68.15
2022-07-26T09:53:15.684Z,68.34
2022-07-26T09:55:45.256Z,68.90
2022-07-26T09:58:13.727Z,68.46
2022-07-26T10:00:40.727Z,68.51
2022-07-26T10:03:07.050Z,69.05
2022-07-26T10:05:34.096Z,69.60
2022-07-26T10:08:01.177Z,69.59
2022-07-26T10:10:34.242Z,69.46
2022-07-26T10:13:03.521Z,69.78
2022-07-26T10:15:34.874Z,69.77
2022-07-26T10:18:02.130Z,70.05
2022-07-26T10:20:50.641Z,70.12
2022-07-26T10:23:37.478Z,70.47
2022-07-26T10:26:06.632Z,70.47
2022-07-26T10:28:36.002Z,70.52
2022-07-26T10:31:28.632Z,70.11
2022-07-26T10:33:56.868Z,70.49
2022-07-26T10:36:23.073Z,70.02
2022-07-26T10:39:07.587Z,69.72
2022-07-26T10:41:43.529Z,69.31
2022-07-26T10:44:26.883Z,69.11
2022-07-26T10:47:11.529Z,68.26
2022-07-26T10:49:38.825Z,68.24
2022-07-26T10:52:13.943Z,67.95
2022-07-26T10:54:56.216Z,67.71
2022-07-26T10:57:23.437Z,67.90
2022-07-26T10:59:57.431Z,67.34
2022-07-26T11:02:31.566Z,65.85
2022-07-26T11:05:17.509Z,65.02
2022-07-26T11:08:08.122Z,65.09
2022-07-26T11:10:38.777Z,65.08
2022-07-26T11:13:23.010Z,64.79
2022-07-26T11:15:53.474Z,64.65
2022-07-26T11:18:23.548Z,64.51
2022-07-26T11:20:54.562Z,64.58
2022-07-26T11:23:26.702Z,64.07
2022-07-26T11:26:03.617Z,64.81
2022-07-26T11:28:30.076Z,64.32
2022-07-26T11:30:58.622Z,63.85
2022-07-26T11:33:42.105Z,63.63
2022-07-26T11:36:09.026Z,63.10
2022-07-26T11:38:53.175Z,62.97
2022-07-26T11:41:34.998Z,63.67
2022-07-26T11:44:03.047Z,63.88
2022-07-26T11:46:38.623Z,64.04
2022-07-26T11:49:13.754Z,64.26
2022-07-26T11:51:47.289Z,64.52
2022-07-26T11:54:14.088Z,64.43
2022-07-26T11:56:49.874Z,64.85
2022-07-26T11:59:17.729Z,65.30
2022-07-26T12:01:49.708Z,65.37
2022-07-26T12:04:23.822Z,65.50
2022-07-26T12:06:55.625Z,65.09
2022-07-26T12:09:39.110Z,64.93
2022-07-26T12:12:06.969Z,65.06
2022-07-26T12:14:36.136Z,65.29
2022-07-26T12:17:18.387Z,65.20
2022-07-26T12:19:45.182Z,65.04
2022-07-26T12:22:12.102Z,65.45
2022-07-26T12:24:43.246Z,65.38
2022-07-26T12:27:09.553Z,65.38
2022-07-26T12:29:37.296Z,65.60
2022-07-26T12:32:12.465Z,65.66
2022-07-26T12:34:40.918Z,65.88
2022-07-26T12:37:09.452Z,65.65
2022-07-26T12:39:35.847Z,65.86
2022-07-26T12:42:33.349Z,65.82
2022-07-26T12:45:03.074Z,66.06
2022-07-26T12:47:29.456Z,65.93
2022-07-26T12:49:55.832Z,66.17
2022-07-26T12:52:23.093Z,66.14
2022-07-26T12:54:53.068Z,66.30
2022-07-26T12:57:21.514Z,66.16
2022-07-26T12:59:48.660Z,66.04
2022-07-26T13:02:18.076Z,66.19
2022-07-26T13:04:45.588Z,66.23
2022-07-26T13:07:14.203Z,66.09
2022-07-26T13:09:41.338Z,66.37
2022-07-26T13:12:08.537Z,66.33
2022-07-26T13:14:36.666Z,66.52
2022-07-26T13:17:04.500Z,66.52
2022-07-26T13:19:32.632Z,66.36
2022-07-26T13:22:00.645Z,66.40
2022-07-26T13:24:28.962Z,66.52
2022-07-26T13:26:56.597Z,66.44
2022-07-26T13:29:27.837Z,66.33
2022-07-26T13:31:57.189Z,66.42
2022-07-26T13:34:23.703Z,66.40
2022-07-26T13:36:51.312Z,66.49
2022-07-26T13:39:17.702Z,66.45
2022-07-26T13:41:44.114Z,66.25
2022-07-26T13:44:11.383Z,66.57
2022-07-26T13:46:40.435Z,66.58
2022-07-26T13:49:07.021Z,66.62
2022-07-26T13:51:52.301Z,66.36
2022-07-26T13:54:21.273Z,66.53
2022-07-26T13:56:48.901Z,66.55
2022-07-26T13:59:15.963Z,66.44
2022-07-26T14:01:43.468Z,66.21
2022-07-26T14:04:14.828Z,66.22
2022-07-26T14:06:42.377Z,66.35
2022-07-26T14:09:10.961Z,66.00
2022-07-26T14:11:38.748Z,66.03
2022-07-26T14:14:07.418Z,66.13
2022-07-26T14:16:34.556Z,65.89
2022-07-26T14:19:01.422Z,65.68
2022-07-26T14:21:38.715Z,65.64
2022-07-26T14:24:14.305Z,65.42
2022-07-26T14:26:42.978Z,65.38
2022-07-26T14:29:09.253Z,65.42
2022-07-26T14:31:36.629Z,65.38
2022-07-26T14:34:03.288Z,65.61
2022-07-26T14:36:30.095Z,65.78
2022-07-26T14:38:56.410Z,65.47
2022-07-26T14:41:22.847Z,65.28
2022-07-26T14:43:54.289Z,64.89
2022-07-26T14:46:22.224Z,64.82
2022-07-26T14:48:54.477Z,64.59
2022-07-26T14:51:21.422Z,64.41
2022-07-26T14:53:48.071Z,64.43
2022-07-26T14:56:14.343Z,64.56
2022-07-26T14:58:40.578Z,64.16
2022-07-26T15:01:06.951Z,64.36
2022-07-26T15:03:33.975Z,63.90
2022-07-26T15:06:00.290Z,64.02
2022-07-26T15:08:26.580Z,63.90
2022-07-26T15:10:53.267Z,63.78
2022-07-26T15:13:19.632Z,64.14
2022-07-26T15:15:46.023Z,63.93
2022-07-26T15:18:12.482Z,63.81
2022-07-26T15:20:41.300Z,63.51
2022-07-26T15:23:09.950Z,63.42
2022-07-26T15:25:38.223Z,63.36
2022-07-26T15:28:04.814Z,62.95
2022-07-26T15:30:35.708Z,63.00
2022-07-26T15:33:02.261Z,63.39
2022-07-26T15:35:29.210Z,63.15
2022-07-26T15:37:56.977Z,63.02
2022-07-26T15:40:23.929Z,62.90
2022-07-26T15:42:52.884Z,62.35
2022-07-26T15:45:21.919Z,62.91
2022-07-26T15:47:54.823Z,62.67
2022-07-26T15:50:25.028Z,62.36
2022-07-26T15:52:51.379Z,62.44
2022-07-26T15:55:18.557Z,62.53
2022-07-26T15:57:45.734Z,62.43
2022-07-26T16:00:13.495Z,62.54
2022-07-26T16:02:41.630Z,62.52
2022-07-26T16:05:10.388Z,62.47
2022-07-26T16:07:40.686Z,62.22
2022-07-26T16:10:08.922Z,62.17
2022-07-26T16:12:36.261Z,62.24
2022-07-26T16:15:04.296Z,61.94
2022-07-26T16:17:30.688Z,61.76
2022-07-26T16:19:57.023Z,61.84
2022-07-26T16:22:24.236Z,61.75
2022-07-26T16:24:51.016Z,61.52
2022-07-26T16:27:17.335Z,61.52
2022-07-26T16:29:43.684Z,61.19
2022-07-26T16:32:12.082Z,61.33
2022-07-26T16:34:38.633Z,61.46
2022-07-26T16:37:07.681Z,61.29
2022-07-26T16:39:33.978Z,61.15
2022-07-26T16:42:07.261Z,60.94
2022-07-26T16:44:35.321Z,60.74
2022-07-26T16:47:02.187Z,60.82
2022-07-26T16:49:28.871Z,60.67
2022-07-26T16:51:56.916Z,60.70
2022-07-26T16:54:23.592Z,60.50
2022-07-26T16:56:49.923Z,60.31
2022-07-26T16:59:16.887Z,60.18
2022-07-26T17:01:43.913Z,60.29
2022-07-26T17:04:10.286Z,60.26
2022-07-26T17:06:36.695Z,60.25
2022-07-26T17:09:03.292Z,60.27
2022-07-26T17:11:29.657Z,60.25
2022-07-26T17:13:55.915Z,60.26
2022-07-26T17:16:25.019Z,60.16
2022-07-26T17:18:53.688Z,60.20
2022-07-26T17:21:20.966Z,60.18
2022-07-26T17:23:48.118Z,60.15
2022-07-26T17:26:16.061Z,60.00
2022-07-26T17:28:42.454Z,60.20
2022-07-26T17:31:09.282Z,60.20
2022-07-26T17:33:35.672Z,60.06
2022-07-26T17:36:27.318Z,59.99
2022-07-26T17:38:56.676Z,60.08
2022-07-26T17:41:28.859Z,60.14
2022-07-26T17:44:02.082Z,60.06
2022-07-26T17:46:31.739Z,60.13
2022-07-26T17:48:58.555Z,60.08
2022-07-26T17:51:24.831Z,60.09
2022-07-26T17:53:53.367Z,60.09
2022-07-26T17:56:21.377Z,60.23
2022-07-26T17:58:47.927Z,60.17
2022-07-26T18:01:14.651Z,60.35
2022-07-26T18:03:41.545Z,60.40
2022-07-26T18:06:07.986Z,60.71
2022-07-26T18:08:34.478Z,61.27
2022-07-26T18:11:02.410Z,61.98
2022-07-26T18:13:28.700Z,62.34
2022-07-26T18:15:55.470Z,62.74
2022-07-26T18:18:22.031Z,63.17
2022-07-26T18:20:49.171Z,63.75
2022-07-26T18:23:15.522Z,64.25
2022-07-26T18:25:41.910Z,64.07
2022-07-26T18:28:10.798Z,64.00
2022-07-26T18:30:37.267Z,64.38
2022-07-26T18:33:05.333Z,64.23
2022-07-26T18:35:31.814Z,64.49
2022-07-26T18:37:58.165Z,64.79
2022-07-26T18:40:27.357Z,65.12
2022-07-26T18:42:53.697Z,65.88
2022-07-26T18:45:20.025Z,65.86
2022-07-26T18:47:46.789Z,66.04
2022-07-26T18:50:17.326Z,65.99
2022-07-26T18:52:45.688Z,66.33
2022-07-26T18:55:13.215Z,66.34
2022-07-26T18:57:42.194Z,66.49
2022-07-26T19:00:16.756Z,66.53
2022-07-26T19:02:49.050Z,66.34
2022-07-26T19:05:19.110Z,66.46
2022-07-26T19:08:06.278Z,66.29
2022-07-26T19:10:33.279Z,66.28
2022-07-26T19:13:01.882Z,66.35
2022-07-26T19:15:29.597Z,66.48
2022-07-26T19:17:57.349Z,66.43
2022-07-26T19:20:25.991Z,66.71
2022-07-26T19:22:53.018Z,66.76
2022-07-26T19:25:19.469Z,66.93
2022-07-26T19:27:47.262Z,66.97
2022-07-26T19:30:14.689Z,67.11
2022-07-26T19:32:42.478Z,67.39
2022-07-26T19:35:10.102Z,67.85
2022-07-26T19:37:37.278Z,68.01
2022-07-26T19:40:04.425Z,68.45
2022-07-26T19:42:31.503Z,68.84
2022-07-26T19:44:58.330Z,69.35
2022-07-26T19:47:24.883Z,69.68
2022-07-26T19:49:52.231Z,69.97
2022-07-26T19:52:18.530Z,70.41
2022-07-26T19:54:44.881Z,70.33
2022-07-26T19:57:11.646Z,70.71
2022-07-26T19:59:38.885Z,70.75
2022-07-26T20:02:05.372Z,70.89
2022-07-26T20:04:52.245Z,71.13
2022-07-26T20:07:18.630Z,71.27
2022-07-26T20:09:47.063Z,70.97
2022-07-26T20:12:13.414Z,71.06
2022-07-26T20:14:39.765Z,71.23
2022-07-26T20:17:11.771Z,71.22
2022-07-26T20:19:39.858Z,71.50
2022-07-26T20:22:06.276Z,71.51
2022-07-26T20:24:32.919Z,71.42
2022-07-26T20:26:59.203Z,71.40
2022-07-26T20:29:25.835Z,71.49
2022-07-26T20:32:13.224Z,71.67
2022-07-26T20:34:39.473Z,71.70
2022-07-26T20:37:07.620Z,71.79
2022-07-26T20:39:35.305Z,71.99
2022-07-26T20:42:02.021Z,72.12
2022-07-26T20:44:29.686Z,72.28
2022-07-26T20:46:56.153Z,72.19
2022-07-26T20:49:22.604Z,72.32
2022-07-26T20:51:49.242Z,72.42
2022-07-26T20:54:15.612Z,72.22
2022-07-26T20:56:42.372Z,72.21
2022-07-26T20:59:09.487Z,72.54
2022-07-26T21:01:36.461Z,72.67
2022-07-26T21:04:02.923Z,72.57
2022-07-26T21:06:29.590Z,72.59
2022-07-26T21:08:57.014Z,72.88
2022-07-26T21:11:23.330Z,72.88
2022-07-26T21:13:49.647Z,73.36
2022-07-26T21:16:19.528Z,73.89
2022-07-26T21:18:46.030Z,74.06
2022-07-26T21:21:20.474Z,73.99
2022-07-26T21:23:48.495Z,73.88
2022-07-26T21:26:14.925Z,74.35
2022-07-26T21:28:41.251Z,73.95
2022-07-26T21:31:07.463Z,73.98
2022-07-26T21:33:33.691Z,73.89
2022-07-26T21:36:00.005Z,73.98
2022-07-26T21:38:29.040Z,73.86
2022-07-26T21:40:55.356Z,74.01
2022-07-26T21:43:21.647Z,74.09
2022-07-26T21:45:47.943Z,74.21
2022-07-26T21:48:14.361Z,74.30
2022-07-26T21:50:44.174Z,74.05
2022-07-26T21:53:10.483Z,74.10
2022-07-26T21:55:36.822Z,74.10
2022-07-26T21:58:03.220Z,74.30
2022-07-26T22:00:30.119Z,74.24
2022-07-26T22:02:56.519Z,74.19
2022-07-26T22:05:39.041Z,74.39
2022-07-26T22:08:09.520Z,74.38
2022-07-26T22:10:43.953Z,74.26
2022-07-26T22:13:11.766Z,74.06
2022-07-26T22:15:38.057Z,73.83
2022-07-26T22:18:05.045Z,73.82
2022-07-26T22:20:32.712Z,73.60
2022-07-26T22:23:01.896Z,73.24
2022-07-26T22:25:30.584Z,72.94
2022-07-26T22:27:58.121Z,72.64
2022-07-26T22:30:27.743Z,72.57
2022-07-26T22:32:57.501Z,72.30
2022-07-26T22:35:25.522Z,72.07
2022-07-26T22:38:06.979Z,71.90
2022-07-26T22:40:34.236Z,71.84
2022-07-26T22:43:00.897Z,71.88
2022-07-26T22:45:28.624Z,71.62
2022-07-26T22:47:55.911Z,71.66
2022-07-26T22:50:24.911Z,71.55
2022-07-26T22:52:52.123Z,71.39
2022-07-26T22:55:18.744Z,71.15
2022-07-26T22:57:45.231Z,71.17
2022-07-26T23:00:14.165Z,70.88
2022-07-26T23:02:40.568Z,70.71
2022-07-26T23:05:07.784Z,70.76
2022-07-26T23:07:35.311Z,70.88
2022-07-26T23:10:03.155Z,70.76
2022-07-26T23:12:30.392Z,70.56
2022-07-26T23:14:57.132Z,70.63
2022-07-26T23:17:23.530Z,70.60
2022-07-26T23:19:50.950Z,70.46
2022-07-26T23:22:17.187Z,70.24
2022-07-26T23:24:43.723Z,70.18
2022-07-26T23:27:10.242Z,70.15
2022-07-26T23:29:36.625Z,69.86
2022-07-26T23:32:03.138Z,69.94
2022-07-26T23:34:29.381Z,69.93
2022-07-26T23:36:55.642Z,69.89
2022-07-26T23:39:22.285Z,69.89
2022-07-26T23:41:48.557Z,69.82
2022-07-26T23:44:14.798Z,69.87
2022-07-26T23:46:41.125Z,70.01
2022-07-26T23:49:07.716Z,70.01
2022-07-26T23:51:34.079Z,69.90
2022-07-26T23:54:00.337Z,69.81
2022-07-26T23:56:27.352Z,69.89
2022-07-26T23:58:53.697Z,69.92
